createdAt,value
2022-10-25T00:01:25.670Z,72.41
2022-10-25T00:03:54.151Z,72.19
2022-10-25T00:06:22.263Z,72.11
2022-10-25T00:08:52.062Z,72.20
2022-10-25T00:11:28.190Z,72.23
2022-10-25T00:13:59.145Z,72.55
2022-10-25T00:16:33.217Z,72.72
2022-10-25T00:19:01.185Z,72.44
2022-10-25T00:21:29.276Z,72.77
2022-10-25T00:23:58.689Z,72.28
2022-10-25T00:26:26.599Z,72.87
2022-10-25T00:28:56.558Z,72.55
2022-10-25T00:31:25.421Z,72.95
2022-10-25T00:33:53.717Z,72.30
2022-10-25T00:36:25.518Z,73.03
2022-10-25T00:38:55.907Z,73.19
2022-10-25T00:41:27.687Z,72.88
2022-10-25T00:44:18.798Z,72.74
2022-10-25T00:46:46.926Z,72.62
2022-10-25T00:49:22.526Z,72.94
2022-10-25T00:52:03.574Z,73.28
2022-10-25T00:54:37.115Z,72.74
2022-10-25T00:57:13.471Z,72.95
2022-10-25T00:59:43.347Z,73.28
2022-10-25T01:02:12.849Z,72.89
2022-10-25T01:04:41.998Z,73.21
2022-10-25T01:07:10.228Z,72.70
2022-10-25T01:09:39.139Z,73.13
2022-10-25T01:12:07.346Z,73.26
2022-10-25T01:14:41.532Z,72.83
2022-10-25T01:17:24.479Z,72.92
2022-10-25T01:20:14.945Z,73.06
2022-10-25T01:22:48.881Z,73.25
2022-10-25T01:25:20.088Z,73.09
2022-10-25T01:28:14.329Z,73.32
2022-10-25T01:31:00.668Z,73.53
2022-10-25T01:33:45.795Z,72.69
2022-10-25T01:36:25.368Z,73.28
2022-10-25T01:38:59.958Z,73.02
2022-10-25T01:42:01.466Z,73.06
2022-10-25T01:45:02.391Z,73.16
2022-10-25T01:47:42.351Z,73.23
2022-10-25T01:50:27.264Z,73.73
2022-10-25T01:55:39.731Z,73.48
2022-10-25T01:58:26.099Z,73.03
2022-10-25T02:01:35.702Z,73.32
2022-10-25T02:04:14.336Z,72.88
2022-10-25T02:07:07.459Z,72.88
2022-10-25T02:09:50.624Z,72.92
2022-10-25T02:12:39.381Z,72.48
2022-10-25T02:15:14.476Z,72.26
2022-10-25T02:17:50.071Z,72.29
2022-10-25T02:20:19.795Z,71.95
2022-10-25T02:22:49.623Z,72.08
2022-10-25T02:25:19.366Z,71.85
2022-10-25T02:27:47.966Z,71.26
2022-10-25T02:30:16.345Z,72.13
2022-10-25T02:32:45.707Z,71.24
2022-10-25T02:35:17.654Z,71.48
2022-10-25T02:37:46.566Z,71.30
2022-10-25T02:40:15.426Z,70.82
2022-10-25T02:42:43.380Z,71.31
2022-10-25T02:45:12.181Z,70.70
2022-10-25T02:47:40.476Z,70.56
2022-10-25T02:50:08.762Z,70.24
2022-10-25T02:52:36.709Z,70.26
2022-10-25T02:55:06.009Z,69.92
2022-10-25T02:57:38.757Z,69.74
2022-10-25T03:00:08.550Z,69.58
2022-10-25T03:02:36.698Z,69.67
2022-10-25T03:05:04.815Z,69.48
2022-10-25T03:07:32.828Z,69.69
2022-10-25T03:10:00.935Z,68.85
2022-10-25T03:12:31.313Z,69.47
2022-10-25T03:14:59.263Z,68.72
2022-10-25T03:17:27.301Z,68.59
2022-10-25T03:19:55.293Z,68.67
2022-10-25T03:22:23.216Z,68.54
2022-10-25T03:24:53.603Z,68.38
2022-10-25T03:27:21.554Z,67.96
2022-10-25T03:29:49.464Z,67.85
2022-10-25T03:32:17.532Z,67.74
2022-10-25T03:34:45.524Z,67.48
2022-10-25T03:37:13.439Z,67.87
2022-10-25T03:39:43.372Z,67.38
2022-10-25T03:42:11.381Z,67.85
2022-10-25T03:44:39.466Z,67.39
2022-10-25T03:47:08.691Z,67.22
2022-10-25T03:49:36.619Z,66.73
2022-10-25T03:52:06.921Z,66.65
2022-10-25T03:54:35.838Z,66.21
2022-10-25T03:57:04.977Z,66.06
2022-10-25T03:59:32.902Z,65.74
2022-10-25T04:02:02.062Z,65.92
2022-10-25T04:04:30.145Z,65.84
2022-10-25T04:06:58.049Z,65.65
2022-10-25T04:09:26.944Z,65.30
2022-10-25T04:11:55.137Z,65.16
2022-10-25T04:14:23.280Z,65.23
2022-10-25T04:16:51.444Z,64.92
2022-10-25T04:19:19.430Z,64.54
2022-10-25T04:21:48.370Z,64.75
2022-10-25T04:24:17.726Z,64.61
2022-10-25T04:26:45.802Z,64.16
2022-10-25T04:29:13.768Z,64.30
2022-10-25T04:31:42.731Z,64.35
2022-10-25T04:34:10.861Z,63.95
2022-10-25T04:36:39.909Z,63.42
2022-10-25T04:39:08.764Z,63.62
2022-10-25T04:41:36.748Z,63.59
2022-10-25T04:44:04.908Z,63.47
2022-10-25T04:46:33.133Z,63.24
2022-10-25T04:49:01.032Z,62.80
2022-10-25T04:51:29.069Z,63.35
2022-10-25T04:53:58.327Z,63.18
2022-10-25T04:56:26.302Z,62.87
2022-10-25T04:58:54.292Z,63.12
2022-10-25T05:01:26.282Z,63.04
2022-10-25T05:03:54.490Z,63.48
2022-10-25T05:06:27.333Z,63.19
2022-10-25T05:08:56.258Z,63.07
2022-10-25T05:11:25.802Z,63.59
2022-10-25T05:13:53.958Z,63.35
2022-10-25T05:16:27.739Z,63.51
2022-10-25T05:18:56.583Z,63.20
2022-10-25T05:21:31.374Z,63.56
2022-10-25T05:24:02.013Z,63.41
2022-10-25T05:26:31.478Z,63.31
2022-10-25T05:29:00.163Z,63.94
2022-10-25T05:31:31.165Z,63.32
2022-10-25T05:34:01.839Z,63.50
2022-10-25T05:36:30.125Z,63.65
2022-10-25T05:39:00.242Z,63.32
2022-10-25T05:41:30.740Z,63.75
2022-10-25T05:44:01.697Z,63.85
2022-10-25T05:46:29.756Z,63.68
2022-10-25T05:49:00.388Z,64.00
2022-10-25T05:51:36.818Z,63.87
2022-10-25T05:54:07.889Z,63.86
2022-10-25T05:56:37.013Z,63.78
2022-10-25T05:59:10.302Z,63.77
2022-10-25T06:01:40.510Z,63.19
2022-10-25T06:04:08.934Z,63.73
2022-10-25T06:06:39.426Z,63.46
2022-10-25T06:09:08.329Z,63.48
2022-10-25T06:11:36.860Z,63.09
2022-10-25T06:14:06.740Z,63.04
2022-10-25T06:16:34.831Z,63.00
2022-10-25T06:19:02.860Z,63.18
2022-10-25T06:21:33.218Z,63.09
2022-10-25T06:24:01.313Z,63.16
2022-10-25T06:26:31.109Z,62.64
2022-10-25T06:29:00.524Z,62.78
2022-10-25T06:31:30.128Z,62.31
2022-10-25T06:34:02.588Z,62.88
2022-10-25T06:36:31.922Z,62.46
2022-10-25T06:39:05.352Z,62.13
2022-10-25T06:41:39.766Z,62.26
2022-10-25T06:44:08.227Z,61.59
2022-10-25T06:49:27.416Z,61.85
2022-10-25T06:51:55.472Z,61.34
2022-10-25T06:54:23.468Z,61.34
2022-10-25T06:56:52.317Z,61.37
2022-10-25T06:59:21.035Z,61.31
2022-10-25T07:01:50.816Z,61.61
2022-10-25T07:04:19.235Z,61.46
2022-10-25T07:06:50.147Z,61.57
2022-10-25T07:09:39.192Z,60.56
2022-10-25T07:12:25.588Z,60.80
2022-10-25T07:14:54.493Z,60.62
2022-10-25T07:17:22.446Z,60.09
2022-10-25T07:19:50.473Z,60.32
2022-10-25T07:22:18.585Z,59.93
2022-10-25T07:24:46.497Z,59.86
2022-10-25T07:27:14.416Z,60.21
2022-10-25T07:29:44.592Z,60.09
2022-10-25T07:32:12.714Z,59.87
2022-10-25T07:34:40.649Z,60.13
2022-10-25T07:37:10.684Z,60.44
2022-10-25T07:39:38.648Z,60.23
2022-10-25T07:42:06.723Z,60.10
2022-10-25T07:44:35.794Z,59.68
2022-10-25T07:47:03.780Z,59.35
2022-10-25T07:49:31.864Z,59.27
2022-10-25T07:52:00.030Z,59.19
2022-10-25T07:54:28.067Z,59.25
2022-10-25T07:56:56.067Z,59.29
2022-10-25T07:59:24.716Z,59.44
2022-10-25T08:01:52.764Z,58.80
2022-10-25T08:04:21.008Z,58.74
2022-10-25T08:06:49.393Z,58.85
2022-10-25T08:09:36.809Z,59.05
2022-10-25T08:12:07.259Z,58.91
2022-10-25T08:14:38.152Z,58.92
2022-10-25T08:17:09.010Z,59.15
2022-10-25T08:19:37.263Z,59.00
2022-10-25T08:22:05.480Z,59.06
2022-10-25T08:24:35.764Z,59.14
2022-10-25T08:27:05.370Z,59.65
2022-10-25T08:29:33.372Z,59.01
2022-10-25T08:32:01.548Z,58.93
2022-10-25T08:34:33.085Z,58.07
2022-10-25T08:37:01.827Z,58.42
2022-10-25T08:39:29.848Z,58.54
2022-10-25T08:42:03.348Z,58.05
2022-10-25T08:44:48.973Z,57.62
2022-10-25T08:47:40.946Z,57.73
2022-10-25T08:50:28.911Z,58.14
2022-10-25T08:53:02.519Z,58.16
2022-10-25T08:55:41.651Z,58.44
2022-10-25T08:58:33.129Z,57.96
2022-10-25T09:01:11.802Z,58.39
2022-10-25T09:03:42.471Z,58.86
2022-10-25T09:06:41.141Z,58.39
2022-10-25T09:09:24.727Z,58.41
2022-10-25T09:11:55.794Z,58.44
2022-10-25T09:14:37.956Z,58.42
2022-10-25T09:17:19.290Z,58.25
2022-10-25T09:20:10.661Z,58.29
2022-10-25T09:22:47.872Z,58.19
2022-10-25T09:25:27.664Z,58.76
2022-10-25T09:28:04.360Z,58.72
2022-10-25T09:30:41.123Z,58.98
2022-10-25T09:33:13.239Z,59.02
2022-10-25T09:35:57.042Z,58.51
2022-10-25T09:38:33.814Z,58.64
2022-10-25T09:41:11.974Z,58.64
2022-10-25T09:43:53.477Z,58.92
2022-10-25T09:46:57.904Z,59.02
2022-10-25T09:50:03.803Z,59.33
2022-10-25T09:55:54.794Z,59.65
2022-10-25T09:58:34.172Z,59.41
2022-10-25T10:01:08.498Z,59.21
2022-10-25T10:03:37.604Z,59.46
2022-10-25T10:06:26.836Z,59.66
2022-10-25T10:09:01.369Z,59.91
2022-10-25T10:11:31.218Z,60.23
2022-10-25T10:14:10.154Z,60.43
2022-10-25T10:16:51.355Z,60.28
2022-10-25T10:19:28.206Z,59.80
2022-10-25T10:22:14.140Z,60.42
2022-10-25T10:24:45.476Z,59.88
2022-10-25T10:27:27.116Z,60.31
2022-10-25T10:30:01.649Z,60.29
2022-10-25T10:32:37.818Z,60.38
2022-10-25T10:35:36.202Z,60.71
2022-10-25T10:38:23.268Z,60.87
2022-10-25T10:40:55.561Z,60.94
2022-10-25T10:43:34.843Z,60.85
2022-10-25T10:46:09.324Z,60.61
2022-10-25T10:48:43.289Z,60.64
2022-10-25T10:51:50.682Z,61.40
2022-10-25T10:54:28.812Z,61.08
2022-10-25T10:57:02.337Z,61.17
2022-10-25T10:59:41.002Z,60.93
2022-10-25T11:02:41.461Z,61.00
2022-10-25T11:05:29.486Z,61.09
2022-10-25T11:08:00.750Z,61.36
2022-10-25T11:10:32.263Z,61.36
2022-10-25T11:13:21.539Z,61.45
2022-10-25T11:16:01.397Z,62.04
2022-10-25T11:19:08.191Z,61.94
2022-10-25T11:22:00.026Z,61.95
2022-10-25T11:24:45.238Z,62.45
2022-10-25T11:27:18.743Z,62.14
2022-10-25T11:30:09.724Z,62.70
2022-10-25T11:33:04.972Z,62.62
2022-10-25T11:35:47.182Z,62.33
2022-10-25T11:38:26.746Z,62.94
2022-10-25T11:41:21.069Z,63.07
2022-10-25T11:43:51.903Z,62.71
2022-10-25T11:46:39.544Z,62.35
2022-10-25T11:49:32.958Z,62.63
2022-10-25T11:52:26.366Z,62.70
2022-10-25T11:55:31.716Z,62.77
2022-10-25T11:58:30.818Z,62.86
2022-10-25T12:01:07.906Z,63.04
2022-10-25T12:03:57.664Z,63.39
2022-10-25T12:06:30.601Z,63.04
2022-10-25T12:09:12.869Z,63.19
2022-10-25T12:12:05.968Z,63.08
2022-10-25T12:14:40.220Z,63.24
2022-10-25T12:17:26.010Z,63.44
2022-10-25T12:19:58.025Z,63.40
2022-10-25T12:22:34.781Z,63.45
2022-10-25T12:25:10.722Z,63.23
2022-10-25T12:27:39.398Z,63.25
2022-10-25T12:30:17.063Z,63.73
2022-10-25T12:32:56.905Z,63.63
2022-10-25T12:35:43.006Z,63.82
2022-10-25T12:38:21.545Z,64.05
2022-10-25T12:40:51.921Z,63.48
2022-10-25T12:43:49.789Z,63.85
2022-10-25T12:46:49.776Z,64.32
2022-10-25T12:49:27.732Z,63.88
2022-10-25T12:52:33.055Z,63.78
2022-10-25T12:55:19.317Z,63.63
2022-10-25T12:58:22.381Z,63.69
2022-10-25T13:01:12.488Z,64.16
2022-10-25T13:03:59.692Z,64.23
2022-10-25T13:06:39.437Z,64.47
2022-10-25T13:09:22.193Z,64.43
2022-10-25T13:12:05.468Z,64.19
2022-10-25T13:14:34.770Z,64.45
2022-10-25T13:17:19.967Z,64.10
2022-10-25T13:19:55.352Z,64.22
2022-10-25T13:22:41.850Z,64.21
2022-10-25T13:25:09.758Z,64.06
2022-10-25T13:27:37.900Z,64.43
2022-10-25T13:30:28.421Z,64.22
2022-10-25T13:33:25.071Z,64.55
2022-10-25T13:35:54.145Z,64.38
2022-10-25T13:38:25.514Z,64.49
2022-10-25T13:41:26.606Z,64.40
2022-10-25T13:44:01.863Z,64.36
2022-10-25T13:46:44.388Z,64.55
2022-10-25T13:49:33.050Z,63.94
2022-10-25T13:52:07.082Z,64.55
2022-10-25T13:54:57.673Z,64.10
2022-10-25T13:57:52.317Z,64.51
2022-10-25T14:00:47.922Z,64.25
2022-10-25T14:03:20.458Z,64.45
2022-10-25T14:05:57.322Z,63.88
2022-10-25T14:08:33.194Z,64.35
2022-10-25T14:11:10.447Z,64.31
2022-10-25T14:14:00.602Z,63.84
2022-10-25T14:16:34.556Z,64.48
2022-10-25T14:19:44.058Z,63.92
2022-10-25T14:22:23.598Z,64.50
2022-10-25T14:24:55.440Z,64.24
2022-10-25T14:27:32.193Z,64.38
2022-10-25T14:30:24.357Z,64.56
2022-10-25T14:33:04.853Z,64.60
2022-10-25T14:35:37.503Z,65.05
2022-10-25T14:38:17.176Z,64.11
2022-10-25T14:40:51.258Z,64.77
2022-10-25T14:43:38.189Z,64.48
2022-10-25T14:46:15.059Z,64.40
2022-10-25T14:48:48.055Z,64.42
2022-10-25T14:51:25.801Z,64.53
2022-10-25T14:53:55.712Z,64.51
2022-10-25T14:56:29.354Z,64.56
2022-10-25T14:58:59.421Z,64.68
2022-10-25T15:01:27.868Z,64.78
2022-10-25T15:03:58.918Z,64.34
2022-10-25T15:06:31.607Z,64.20
2022-10-25T15:09:41.235Z,64.75
2022-10-25T15:12:15.660Z,64.93
2022-10-25T15:14:47.128Z,64.70
2022-10-25T15:17:27.064Z,65.19
2022-10-25T15:20:35.077Z,64.62
2022-10-25T15:23:06.550Z,64.60
2022-10-25T15:25:39.736Z,64.78
2022-10-25T15:28:16.879Z,64.46
2022-10-25T15:30:50.546Z,64.50
2022-10-25T15:33:27.871Z,64.79
2022-10-25T15:36:06.383Z,65.13
2022-10-25T15:39:05.892Z,64.75
2022-10-25T15:41:25.185Z,64.83
2022-10-25T15:43:55.714Z,64.38
2022-10-25T15:46:34.518Z,65.25
2022-10-25T15:49:07.541Z,65.14
2022-10-25T15:51:39.321Z,65.05
2022-10-25T15:54:16.420Z,65.11
2022-10-25T15:56:45.826Z,64.89
2022-10-25T16:01:53.967Z,64.92
2022-10-25T16:04:22.155Z,64.60
2022-10-25T16:06:50.197Z,64.75
2022-10-25T16:09:18.369Z,65.26
2022-10-25T16:11:54.806Z,65.30
2022-10-25T16:14:26.327Z,65.50
2022-10-25T16:16:54.603Z,65.55
2022-10-25T16:19:22.728Z,65.42
2022-10-25T16:21:54.231Z,65.52
2022-10-25T16:24:22.269Z,65.62
2022-10-25T16:26:51.777Z,65.48
2022-10-25T16:29:24.553Z,64.95
2022-10-25T16:31:54.463Z,65.54
2022-10-25T16:34:22.698Z,65.14
2022-10-25T16:36:54.634Z,65.22
2022-10-25T16:39:22.751Z,64.97
2022-10-25T16:41:51.534Z,65.79
2022-10-25T16:44:20.625Z,65.06
2022-10-25T16:46:48.689Z,65.20
2022-10-25T16:49:16.758Z,65.35
2022-10-25T16:51:45.852Z,65.39
2022-10-25T16:54:15.594Z,65.66
2022-10-25T16:56:44.016Z,65.80
2022-10-25T16:59:12.159Z,65.82
2022-10-25T17:01:43.730Z,65.68
2022-10-25T17:04:16.399Z,65.57
2022-10-25T17:06:44.384Z,65.57
2022-10-25T17:09:12.420Z,65.82
2022-10-25T17:11:41.313Z,65.83
2022-10-25T17:14:13.137Z,65.30
2022-10-25T17:16:44.737Z,65.49
2022-10-25T17:19:13.851Z,66.23
2022-10-25T17:21:41.898Z,66.04
2022-10-25T17:24:10.156Z,65.55
2022-10-25T17:26:39.045Z,65.53
2022-10-25T17:29:06.993Z,65.71
2022-10-25T17:31:35.922Z,66.07
2022-10-25T17:34:04.768Z,66.03
2022-10-25T17:36:33.239Z,66.14
2022-10-25T17:39:01.607Z,65.83
2022-10-25T17:41:29.640Z,65.67
2022-10-25T17:43:57.647Z,66.30
2022-10-25T17:46:32.780Z,66.00
2022-10-25T17:49:03.814Z,65.69
2022-10-25T17:51:33.608Z,65.92
2022-10-25T17:54:01.729Z,65.81
2022-10-25T17:59:07.101Z,65.97
2022-10-25T18:01:36.799Z,66.15
2022-10-25T18:04:04.961Z,66.39
2022-10-25T18:06:34.152Z,66.33
2022-10-25T18:09:04.505Z,65.94
2022-10-25T18:11:32.700Z,66.27
2022-10-25T18:14:02.946Z,65.96
2022-10-25T18:16:31.505Z,66.42
2022-10-25T18:19:02.295Z,66.12
2022-10-25T18:21:32.069Z,66.49
2022-10-25T18:24:02.207Z,66.80
2022-10-25T18:26:30.342Z,66.52
2022-10-25T18:28:59.328Z,66.53
2022-10-25T18:31:27.736Z,66.46
2022-10-25T18:34:05.656Z,66.22
2022-10-25T18:36:33.833Z,66.96
2022-10-25T18:39:01.828Z,66.71
2022-10-25T18:41:32.494Z,66.95
2022-10-25T18:44:01.513Z,66.70
2022-10-25T18:46:32.556Z,66.69
2022-10-25T18:49:02.371Z,66.77
2022-10-25T18:51:31.120Z,67.27
2022-10-25T18:54:01.198Z,67.15
2022-10-25T18:56:31.487Z,66.68
2022-10-25T18:59:00.342Z,66.64
2022-10-25T19:01:34.221Z,67.40
2022-10-25T19:04:04.489Z,66.92
2022-10-25T19:06:34.262Z,67.51
2022-10-25T19:09:06.474Z,67.27
2022-10-25T19:11:35.744Z,67.69
2022-10-25T19:14:05.022Z,67.18
2022-10-25T19:16:34.129Z,67.20
2022-10-25T19:19:51.095Z,67.59
2022-10-25T19:22:19.375Z,67.58
2022-10-25T19:24:48.473Z,67.71
2022-10-25T19:27:16.921Z,67.98
2022-10-25T19:29:45.905Z,67.94
2022-10-25T19:32:14.094Z,67.76
2022-10-25T19:34:42.076Z,67.87
2022-10-25T19:37:11.924Z,68.07
2022-10-25T19:39:41.661Z,67.50
2022-10-25T19:42:12.021Z,68.20
2022-10-25T19:44:40.132Z,67.52
2022-10-25T19:47:08.303Z,67.54
2022-10-25T19:49:36.223Z,68.17
2022-10-25T19:52:04.407Z,67.79
2022-10-25T19:54:32.460Z,67.90
2022-10-25T19:57:01.969Z,68.30
2022-10-25T19:59:32.805Z,68.37
2022-10-25T20:02:01.192Z,67.95
2022-10-25T20:04:30.997Z,68.02
2022-10-25T20:07:00.657Z,68.45
2022-10-25T20:09:28.288Z,68.54
2022-10-25T20:11:56.314Z,67.82
2022-10-25T20:14:24.515Z,67.73
2022-10-25T20:16:52.502Z,67.99
2022-10-25T20:19:20.432Z,68.13
2022-10-25T20:21:49.733Z,67.61
2022-10-25T20:24:17.713Z,68.34
2022-10-25T20:26:50.000Z,68.40
2022-10-25T20:29:21.555Z,68.05
2022-10-25T20:31:51.611Z,68.33
2022-10-25T20:34:20.697Z,68.09
2022-10-25T20:36:50.163Z,68.22
2022-10-25T20:39:18.496Z,68.06
2022-10-25T20:41:46.580Z,68.60
2022-10-25T20:44:16.742Z,68.41
2022-10-25T20:46:44.725Z,68.60
2022-10-25T20:49:12.686Z,68.51
2022-10-25T20:51:41.703Z,68.36
2022-10-25T20:54:10.094Z,68.36
2022-10-25T20:56:40.006Z,68.84
2022-10-25T20:59:09.824Z,69.02
2022-10-25T21:01:37.992Z,68.60
2022-10-25T21:04:06.417Z,68.85
2022-10-25T21:06:36.643Z,68.60
2022-10-25T21:09:04.685Z,69.02
2022-10-25T21:11:33.324Z,69.00
2022-10-25T21:14:01.361Z,68.91
2022-10-25T21:16:29.320Z,69.10
2022-10-25T21:18:57.244Z,68.68
2022-10-25T21:21:25.313Z,68.98
2022-10-25T21:23:57.315Z,69.15
2022-10-25T21:26:25.409Z,68.87
2022-10-25T21:28:53.542Z,69.12
2022-10-25T21:31:21.596Z,68.84
2022-10-25T21:33:51.075Z,68.94
2022-10-25T21:36:21.401Z,68.98
2022-10-25T21:38:49.930Z,69.25
2022-10-25T21:41:21.204Z,69.43
2022-10-25T21:43:51.715Z,69.11
2022-10-25T21:46:21.896Z,69.04
2022-10-25T21:48:51.411Z,69.29
2022-10-25T21:51:28.407Z,69.77
2022-10-25T21:53:56.423Z,68.76
2022-10-25T21:56:31.290Z,69.10
2022-10-25T21:59:01.146Z,69.18
2022-10-25T22:01:30.827Z,69.56
2022-10-25T22:03:59.242Z,69.60
2022-10-25T22:06:28.567Z,69.71
2022-10-25T22:08:58.498Z,69.28
2022-10-25T22:11:29.398Z,69.86
2022-10-25T22:13:59.997Z,69.58
2022-10-25T22:16:28.995Z,69.26
2022-10-25T22:19:04.453Z,69.52
2022-10-25T22:21:38.472Z,69.58
2022-10-25T22:24:11.569Z,70.03
2022-10-25T22:26:42.319Z,69.66
2022-10-25T22:29:15.029Z,69.99
2022-10-25T22:31:43.097Z,69.48
2022-10-25T22:34:11.260Z,69.98
2022-10-25T22:36:41.769Z,69.46
2022-10-25T22:39:10.378Z,70.04
2022-10-25T22:41:39.257Z,70.02
2022-10-25T22:44:07.178Z,70.04
2022-10-25T22:46:36.684Z,69.53
2022-10-25T22:49:11.633Z,70.07
2022-10-25T22:51:40.193Z,70.14
2022-10-25T22:54:08.392Z,69.98
2022-10-25T22:56:36.596Z,69.53
2022-10-25T22:59:06.773Z,69.82
2022-10-25T23:01:37.289Z,69.79
2022-10-25T23:04:10.683Z,70.14
2022-10-25T23:06:41.506Z,69.94
2022-10-25T23:09:11.618Z,69.75
2022-10-25T23:11:43.204Z,69.98
2022-10-25T23:14:14.950Z,70.16
2022-10-25T23:16:46.536Z,70.09
2022-10-25T23:19:14.733Z,69.79
2022-10-25T23:21:42.668Z,70.09
2022-10-25T23:24:11.076Z,69.69
2022-10-25T23:26:39.474Z,69.85
2022-10-25T23:29:07.553Z,69.85
2022-10-25T23:31:35.622Z,70.20
2022-10-25T23:34:03.654Z,69.97
2022-10-25T23:36:38.177Z,69.56
2022-10-25T23:39:08.168Z,70.00
2022-10-25T23:41:36.505Z,70.20
2022-10-25T23:44:04.645Z,69.66
2022-10-25T23:46:32.817Z,70.12
2022-10-25T23:49:00.804Z,70.39
2022-10-25T23:51:28.774Z,69.97
2022-10-25T23:53:56.978Z,69.73
2022-10-25T23:56:24.921Z,70.13
2022-10-25T23:58:54.135Z,70.34
